Time;durP1;ratioP1;P1;durP2;ratioP2;P2;SDS_P1;SDS_P2;PMS_P1;PMS_P2;Temp;Humidity;BMP_temperature;BMP_pressure;BME280_temperature;BME280_humidity;BME280_pressure;Samples;Min_cycle;Max_cycle;Signal;HPM_P1;HPM_P2
2023/09/20 00:01:04;;;;;;;;;;;20.30;64.70;;;;;;5041777;28;88081;-51
2023/09/20 00:03:30;;;;;;;;;;;20.30;64.70;;;;;;5042489;27;89714;-50
2023/09/20 00:05:56;;;;;;;;;;;20.20;64.70;;;;;;5042850;27;87218;-55
2023/09/20 00:08:21;;;;;;;;;;;20.20;64.70;;;;;;5045243;27;89009;-48
2023/09/20 00:10:47;;;;;;;;;;;20.20;64.60;;;;;;5042409;28;87989;-54
2023/09/20 00:13:13;;;;;;;;;;;20.20;64.60;;;;;;5042341;27;87575;-57
2023/09/20 00:15:42;;;;;;;;;;;20.20;64.70;;;;;;5042463;28;88234;-51
2023/09/20 00:18:08;;;;;;;;;;;20.20;64.80;;;;;;5042938;27;86502;-56
2023/09/20 00:20:35;;;;;;;;;;;20.20;64.70;;;;;;5042435;27;88658;-47
2023/09/20 00:23:02;;;;;;;;;;;20.20;64.60;;;;;;5041975;28;88309;-54
2023/09/20 00:25:28;;;;;;;;;;;20.20;64.70;;;;;;5041356;27;88034;-54
2023/09/20 00:27:53;;;;;;;;;;;20.20;64.60;;;;;;5042602;28;88421;-52
2023/09/20 00:30:19;;;;;;;;;;;20.20;64.60;;;;;;5044786;28;88087;-49
2023/09/20 00:32:45;;;;;;;;;;;20.20;64.60;;;;;;5042552;28;87728;-51
2023/09/20 00:35:14;;;;;;;;;;;20.20;64.70;;;;;;5041941;27;89714;-50
2023/09/20 00:37:40;;;;;;;;;;;20.20;64.70;;;;;;5042324;27;87081;-57
2023/09/20 00:40:15;;;;;;;;;;;20.20;64.70;;;;;;5041554;28;88001;-54
2023/09/20 00:42:42;;;;;;;;;;;20.20;64.70;;;;;;5042548;27;87457;-56
2023/09/20 00:45:08;;;;;;;;;;;20.20;64.70;;;;;;5041678;28;87207;-53
2023/09/20 00:47:34;;;;;;;;;;;20.20;64.70;;;;;;5042017;28;89004;-51
2023/09/20 00:50:01;;;;;;;;;;;20.20;64.80;;;;;;5041002;27;90905;-52
2023/09/20 00:52:28;;;;;;;;;;;20.10;64.70;;;;;;5045065;28;86975;-49
2023/09/20 00:54:57;;;;;;;;;;;20.10;64.70;;;;;;5041585;28;89504;-58
2023/09/20 00:57:24;;;;;;;;;;;20.10;64.70;;;;;;5040592;27;87232;-54
2023/09/20 00:59:49;;;;;;;;;;;20.10;64.80;;;;;;5042664;27;87541;-48
2023/09/20 01:02:15;;;;;;;;;;;20.10;64.70;;;;;;5037209;28;88034;-44
2023/09/20 01:04:40;;;;;;;;;;;20.10;64.90;;;;;;5042207;28;87123;-47
2023/09/20 01:07:06;;;;;;;;;;;20.10;64.80;;;;;;5042549;28;87596;-57
2023/09/20 01:09:31;;;;;;;;;;;20.10;64.70;;;;;;5041335;27;88414;-49
2023/09/20 01:11:57;;;;;;;;;;;20.10;64.80;;;;;;5041800;28;87758;-49
2023/09/20 01:14:23;;;;;;;;;;;20.10;64.80;;;;;;5043408;27;88438;-56
2023/09/20 01:16:49;;;;;;;;;;;20.10;64.80;;;;;;5042056;28;87180;-54
2023/09/20 01:19:14;;;;;;;;;;;20.00;64.10;;;;;;5041878;27;87630;-52
2023/09/20 01:21:41;;;;;;;;;;;20.00;64.80;;;;;;5041550;28;88361;-53
2023/09/20 01:24:08;;;;;;;;;;;20.00;64.80;;;;;;5041743;27;87090;-55
2023/09/20 01:26:35;;;;;;;;;;;20.00;64.80;;;;;;5041381;27;88764;-56
2023/09/20 01:29:00;;;;;;;;;;;20.00;64.80;;;;;;5041121;28;88024;-57
2023/09/20 01:31:26;;;;;;;;;;;20.00;64.70;;;;;;5042235;28;86337;-53
2023/09/20 01:33:52;;;;;;;;;;;20.00;64.70;;;;;;5044544;27;87882;-53
2023/09/20 01:36:18;;;;;;;;;;;20.00;64.80;;;;;;5045103;27;87189;-52
2023/09/20 01:38:43;;;;;;;;;;;20.00;64.70;;;;;;5044330;27;88589;-52
2023/09/20 01:41:09;;;;;;;;;;;19.90;64.70;;;;;;5044328;27;87499;-54
2023/09/20 01:43:36;;;;;;;;;;;19.90;64.80;;;;;;5045115;28;87213;-54
2023/09/20 01:46:03;;;;;;;;;;;19.90;64.70;;;;;;5044789;27;87993;-54
2023/09/20 01:48:28;;;;;;;;;;;19.90;64.70;;;;;;5044740;27;89575;-57
2023/09/20 01:50:54;;;;;;;;;;;19.90;64.60;;;;;;5045154;28;87297;-55
2023/09/20 01:53:19;;;;;;;;;;;19.90;64.80;;;;;;5044665;28;87469;-54
2023/09/20 01:55:45;;;;;;;;;;;19.90;64.70;;;;;;5047773;27;89194;-48
2023/09/20 01:58:14;;;;;;;;;;;19.90;64.70;;;;;;5044171;27;88130;-53
2023/09/20 02:00:42;;;;;;;;;;;19.90;64.80;;;;;;5043948;27;88529;-57
2023/09/20 02:03:13;;;;;;;;;;;19.90;64.70;;;;;;5043924;27;88131;-52
2023/09/20 02:05:39;;;;;;;;;;;19.90;64.70;;;;;;5041698;28;88648;-57
2023/09/20 02:08:05;;;;;;;;;;;19.90;64.80;;;;;;5043962;27;88687;-56
2023/09/20 02:10:31;;;;;;;;;;;19.80;64.70;;;;;;5044674;27;87129;-53
2023/09/20 02:12:57;;;;;;;;;;;19.80;64.60;;;;;;5043962;27;89239;-58
2023/09/20 02:15:27;;;;;;;;;;;19.80;64.60;;;;;;5043854;28;88362;-50
2023/09/20 02:17:52;;;;;;;;;;;19.80;64.70;;;;;;5043972;28;87084;-53
2023/09/20 02:20:19;;;;;;;;;;;19.80;64.80;;;;;;5044674;28;87811;-51
2023/09/20 02:22:46;;;;;;;;;;;19.80;64.80;;;;;;5044555;27;87247;-55
2023/09/20 02:25:12;;;;;;;;;;;19.70;64.80;;;;;;5044502;27;87603;-58
2023/09/20 02:27:39;;;;;;;;;;;19.80;64.80;;;;;;5043066;27;89419;-55
2023/09/20 02:30:05;;;;;;;;;;;19.80;64.80;;;;;;5043919;27;87277;-51
2023/09/20 02:32:32;;;;;;;;;;;19.70;65.00;;;;;;5044522;27;87844;-59
2023/09/20 02:35:00;;;;;;;;;;;19.80;64.80;;;;;;5044080;28;88574;-61
2023/09/20 02:37:25;;;;;;;;;;;19.70;64.70;;;;;;5044133;27;87085;-55
2023/09/20 02:39:51;;;;;;;;;;;19.70;64.70;;;;;;5047045;28;87587;-51
2023/09/20 02:42:19;;;;;;;;;;;19.70;64.70;;;;;;5044112;27;87131;-51
2023/09/20 02:44:47;;;;;;;;;;;19.70;64.80;;;;;;5044009;27;89158;-54
2023/09/20 02:47:12;;;;;;;;;;;19.70;64.80;;;;;;5043359;27;89217;-54
2023/09/20 02:49:40;;;;;;;;;;;19.70;64.80;;;;;;5044156;28;87004;-51
2023/09/20 02:52:05;;;;;;;;;;;19.70;64.90;;;;;;5043276;27;89142;-57
2023/09/20 02:54:31;;;;;;;;;;;19.60;64.80;;;;;;5043237;28;87481;-51
2023/09/20 02:56:56;;;;;;;;;;;19.60;64.80;;;;;;5043581;27;87087;-59
2023/09/20 02:59:22;;;;;;;;;;;19.60;64.80;;;;;;5043929;28;87694;-57
2023/09/20 03:01:49;;;;;;;;;;;19.70;64.80;;;;;;5045608;28;87880;-55
2023/09/20 03:04:15;;;;;;;;;;;19.60;64.80;;;;;;5043943;27;87863;-55
2023/09/20 03:06:44;;;;;;;;;;;19.60;64.80;;;;;;5043170;28;89378;-51
2023/09/20 03:09:10;;;;;;;;;;;19.60;64.80;;;;;;5044174;27;86417;-56
2023/09/20 03:11:37;;;;;;;;;;;19.60;64.80;;;;;;5043491;28;87835;-56
2023/09/20 03:14:03;;;;;;;;;;;19.60;64.80;;;;;;5042774;27;88119;-50
2023/09/20 03:16:29;;;;;;;;;;;19.60;64.80;;;;;;5042849;27;89228;-56
2023/09/20 03:18:55;;;;;;;;;;;19.60;64.90;;;;;;5042192;28;89638;-51
2023/09/20 03:21:21;;;;;;;;;;;19.50;64.80;;;;;;5042828;28;89914;-51
2023/09/20 03:23:46;;;;;;;;;;;19.50;64.70;;;;;;5046156;27;87062;-53
2023/09/20 03:26:15;;;;;;;;;;;19.50;64.80;;;;;;5043166;28;88671;-54
2023/09/20 03:28:43;;;;;;;;;;;19.50;64.80;;;;;;5042888;28;87050;-47
2023/09/20 03:31:10;;;;;;;;;;;19.50;64.80;;;;;;5042947;27;88808;-52
2023/09/20 03:33:36;;;;;;;;;;;19.50;65.50;;;;;;5043538;28;87323;-54
2023/09/20 03:36:09;;;;;;;;;;;19.50;64.80;;;;;;5043422;27;87136;-54
2023/09/20 03:38:35;;;;;;;;;;;19.40;64.80;;;;;;5043360;27;87006;-55
2023/09/20 03:41:00;;;;;;;;;;;19.50;64.90;;;;;;5042089;28;89451;-53
2023/09/20 03:43:27;;;;;;;;;;;19.40;64.90;;;;;;5045685;27;87184;-56
2023/09/20 03:45:54;;;;;;;;;;;19.50;65.10;;;;;;5041921;28;89838;-56
2023/09/20 03:48:20;;;;;;;;;;;19.50;64.90;;;;;;5042785;27;87496;-53
2023/09/20 03:50:45;;;;;;;;;;;19.40;64.90;;;;;;5043206;27;87503;-58
2023/09/20 03:53:11;;;;;;;;;;;19.40;64.90;;;;;;5042895;27;88426;-60
2023/09/20 03:55:37;;;;;;;;;;;19.40;64.90;;;;;;5042935;27;87552;-52
2023/09/20 03:58:03;;;;;;;;;;;19.40;64.90;;;;;;5042345;28;86590;-53
2023/09/20 04:00:31;;;;;;;;;;;19.40;64.90;;;;;;5042005;27;89433;-51
2023/09/20 04:02:57;;;;;;;;;;;19.40;64.80;;;;;;5042665;28;87090;-57
2023/09/20 04:05:24;;;;;;;;;;;19.40;65.00;;;;;;5044762;28;87974;-56
2023/09/20 04:07:49;;;;;;;;;;;19.40;64.30;;;;;;5042893;28;87333;-57
2023/09/20 04:10:16;;;;;;;;;;;19.40;64.90;;;;;;5042866;27;87671;-47
2023/09/20 04:12:41;;;;;;;;;;;19.40;64.90;;;;;;5042887;27;89513;-57
2023/09/20 04:15:08;;;;;;;;;;;19.40;64.90;;;;;;5040295;27;87216;-53
2023/09/20 04:17:35;;;;;;;;;;;19.40;64.80;;;;;;5037649;27;87375;-51
2023/09/20 04:20:03;;;;;;;;;;;19.40;64.90;;;;;;5042151;27;89653;-49
2023/09/20 04:22:31;;;;;;;;;;;19.30;64.80;;;;;;5042065;27;86477;-53
2023/09/20 04:24:57;;;;;;;;;;;19.40;64.90;;;;;;5039778;27;87190;-50
2023/09/20 04:27:22;;;;;;;;;;;19.30;64.80;;;;;;5043724;27;88480;-51
2023/09/20 04:29:48;;;;;;;;;;;19.30;65.00;;;;;;5041975;27;88026;-54
2023/09/20 04:32:14;;;;;;;;;;;19.30;64.90;;;;;;5040578;27;88165;-53
2023/09/20 04:34:40;;;;;;;;;;;19.30;64.90;;;;;;5041215;27;87130;-59
2023/09/20 04:37:06;;;;;;;;;;;19.30;64.90;;;;;;5039239;27;88817;-53
2023/09/20 04:39:31;;;;;;;;;;;19.30;64.80;;;;;;5042052;27;88474;-57
2023/09/20 04:41:57;;;;;;;;;;;19.20;64.90;;;;;;5040426;27;87319;-50
2023/09/20 04:44:23;;;;;;;;;;;19.20;64.90;;;;;;5040415;27;87132;-56
2023/09/20 04:46:48;;;;;;;;;;;19.20;64.90;;;;;;5042096;27;87800;-49
2023/09/20 04:49:14;;;;;;;;;;;19.20;64.90;;;;;;5044205;27;87675;-54
2023/09/20 04:51:42;;;;;;;;;;;19.20;64.90;;;;;;5039418;27;87782;-54
2023/09/20 04:54:08;;;;;;;;;;;19.20;64.80;;;;;;5036598;27;88060;-51
2023/09/20 04:56:34;;;;;;;;;;;19.20;64.80;;;;;;5042014;27;89927;-51
2023/09/20 04:59:00;;;;;;;;;;;19.20;64.80;;;;;;5040958;27;88126;-51
2023/09/20 05:01:26;;;;;;;;;;;19.20;64.80;;;;;;5038779;27;87146;-55
2023/09/20 05:03:51;;;;;;;;;;;19.20;64.90;;;;;;5038707;28;87963;-58
2023/09/20 05:06:17;;;;;;;;;;;19.20;64.80;;;;;;5041883;27;88370;-60
2023/09/20 05:08:43;;;;;;;;;;;19.20;64.20;;;;;;5043525;27;88330;-49
2023/09/20 05:11:10;;;;;;;;;;;19.20;64.70;;;;;;5045662;27;87000;-55
2023/09/20 05:13:36;;;;;;;;;;;19.20;64.90;;;;;;5045554;27;87183;-53
2023/09/20 05:16:03;;;;;;;;;;;19.20;64.80;;;;;;5044843;27;89353;-49
2023/09/20 05:18:29;;;;;;;;;;;19.20;64.80;;;;;;5041642;27;90767;-53
2023/09/20 05:20:55;;;;;;;;;;;19.10;64.80;;;;;;5043573;27;87047;-58
2023/09/20 05:23:20;;;;;;;;;;;19.10;64.80;;;;;;5045571;27;87370;-60
2023/09/20 05:25:48;;;;;;;;;;;19.10;64.80;;;;;;5044233;27;88326;-53
2023/09/20 05:28:15;;;;;;;;;;;19.10;64.30;;;;;;5043134;27;88372;-48
2023/09/20 05:30:41;;;;;;;;;;;19.10;64.80;;;;;;5046173;28;87727;-55
2023/09/20 05:33:07;;;;;;;;;;;19.10;64.70;;;;;;5044729;27;88042;-52
2023/09/20 05:35:33;;;;;;;;;;;19.10;64.90;;;;;;5044164;27;87648;-59
2023/09/20 05:37:59;;;;;;;;;;;19.10;64.70;;;;;;5042907;27;88105;-58
2023/09/20 05:40:28;;;;;;;;;;;19.20;64.80;;;;;;5040098;27;87360;-54
2023/09/20 05:42:53;;;;;;;;;;;19.10;64.60;;;;;;5044443;27;89166;-57
2023/09/20 05:45:26;;;;;;;;;;;19.10;64.80;;;;;;5042754;27;88884;-53
2023/09/20 05:47:52;;;;;;;;;;;19.10;65.20;;;;;;5044404;27;88694;-54
2023/09/20 05:50:17;;;;;;;;;;;19.10;64.70;;;;;;5044916;27;89302;-55
2023/09/20 05:52:43;;;;;;;;;;;19.10;64.70;;;;;;5047051;27;88449;-49
2023/09/20 05:55:14;;;;;;;;;;;19.10;64.60;;;;;;5047386;27;89307;-55
2023/09/20 05:57:43;;;;;;;;;;;19.10;64.60;;;;;;5040858;27;87337;-50
2023/09/20 06:00:12;;;;;;;;;;;19.10;64.70;;;;;;5045275;27;87117;-59
2023/09/20 06:02:38;;;;;;;;;;;19.10;64.70;;;;;;5041884;27;88527;-50
2023/09/20 06:05:04;;;;;;;;;;;19.10;64.70;;;;;;5043969;27;89027;-47
2023/09/20 06:07:30;;;;;;;;;;;19.10;64.60;;;;;;5040778;27;88440;-57
2023/09/20 06:09:56;;;;;;;;;;;19.10;64.70;;;;;;5043614;27;89743;-54
2023/09/20 06:12:21;;;;;;;;;;;19.10;64.80;;;;;;5046877;27;88563;-48
2023/09/20 06:14:47;;;;;;;;;;;19.10;64.70;;;;;;5043230;27;87419;-50
2023/09/20 06:17:12;;;;;;;;;;;19.10;65.30;;;;;;5041325;28;88309;-56
2023/09/20 06:19:38;;;;;;;;;;;19.10;64.70;;;;;;5043213;28;87442;-47
2023/09/20 06:22:03;;;;;;;;;;;19.10;64.70;;;;;;5038086;27;87687;-51
2023/09/20 06:24:29;;;;;;;;;;;19.10;64.90;;;;;;5041784;27;87505;-52
2023/09/20 06:26:55;;;;;;;;;;;19.10;64.70;;;;;;5042999;27;87522;-53
2023/09/20 06:29:21;;;;;;;;;;;19.10;64.70;;;;;;5043854;27;87605;-56
2023/09/20 06:31:46;;;;;;;;;;;19.00;64.80;;;;;;5039356;27;90093;-48
2023/09/20 06:34:17;;;;;;;;;;;19.00;64.90;;;;;;5041911;27;87611;-55
2023/09/20 06:36:43;;;;;;;;;;;19.00;64.80;;;;;;5045656;27;89143;-55
2023/09/20 06:39:09;;;;;;;;;;;19.00;64.80;;;;;;5041469;27;87180;-53
2023/09/20 06:41:34;;;;;;;;;;;19.00;64.90;;;;;;5040877;27;87665;-51
2023/09/20 06:44:00;;;;;;;;;;;19.00;64.90;;;;;;5040780;27;88161;-50
2023/09/20 06:46:25;;;;;;;;;;;19.00;64.40;;;;;;5042874;28;87135;-55
2023/09/20 06:48:51;;;;;;;;;;;19.00;65.00;;;;;;5041082;27;86723;-55
2023/09/20 06:51:17;;;;;;;;;;;19.00;64.90;;;;;;5038011;27;88260;-55
2023/09/20 06:53:44;;;;;;;;;;;19.00;65.00;;;;;;5042812;27;87805;-50
2023/09/20 06:56:09;;;;;;;;;;;19.10;65.00;;;;;;5041413;27;88023;-58
2023/09/20 06:58:36;;;;;;;;;;;19.10;64.80;;;;;;5042884;27;88218;-55
2023/09/20 07:01:04;;;;;;;;;;;19.00;64.90;;;;;;4963801;27;2062681;-55
2023/09/20 07:03:31;;;;;;;;;;;19.10;65.00;;;;;;5041132;28;89203;-50
2023/09/20 07:05:57;;;;;;;;;;;19.10;64.90;;;;;;5042425;27;87103;-57
2023/09/20 07:08:23;;;;;;;;;;;19.00;64.90;;;;;;5041335;27;89531;-51
2023/09/20 07:10:50;;;;;;;;;;;19.10;65.10;;;;;;5044224;27;89566;-54
2023/09/20 07:13:18;;;;;;;;;;;19.00;65.10;;;;;;5044014;27;86294;-52
2023/09/20 07:15:44;;;;;;;;;;;19.00;65.10;;;;;;5041771;27;88066;-56
2023/09/20 07:18:12;;;;;;;;;;;19.00;65.10;;;;;;5042881;27;88315;-59
2023/09/20 07:20:39;;;;;;;;;;;19.00;65.10;;;;;;5045003;28;88203;-55
2023/09/20 07:23:06;;;;;;;;;;;19.00;65.50;;;;;;5039421;27;88184;-54
2023/09/20 07:25:35;;;;;;;;;;;19.00;65.10;;;;;;5043287;27;88928;-50
2023/09/20 07:28:03;;;;;;;;;;;19.10;65.20;;;;;;5038392;27;88882;-54
2023/09/20 07:30:31;;;;;;;;;;;19.00;65.10;;;;;;5043012;27;89009;-54
2023/09/20 07:32:58;;;;;;;;;;;19.00;65.20;;;;;;5041125;27;87211;-58
2023/09/20 07:35:26;;;;;;;;;;;19.00;65.20;;;;;;5044492;27;87987;-52
2023/09/20 07:37:56;;;;;;;;;;;19.00;65.20;;;;;;5040546;27;88213;-54
2023/09/20 07:40:25;;;;;;;;;;;19.00;65.10;;;;;;5044828;28;87104;-57
2023/09/20 07:42:51;;;;;;;;;;;19.00;65.10;;;;;;5041113;27;88877;-44
2023/09/20 07:45:18;;;;;;;;;;;19.10;65.00;;;;;;5038961;27;88094;-59
2023/09/20 07:47:44;;;;;;;;;;;19.00;65.10;;;;;;5041291;28;88551;-54
2023/09/20 07:50:11;;;;;;;;;;;19.00;64.90;;;;;;5042603;28;89868;-51
2023/09/20 07:52:38;;;;;;;;;;;19.10;65.00;;;;;;5043468;27;88278;-55
2023/09/20 07:55:04;;;;;;;;;;;19.10;65.10;;;;;;5044155;27;87545;-58
2023/09/20 07:57:30;;;;;;;;;;;19.10;65.20;;;;;;5042342;27;89153;-51
2023/09/20 07:59:59;;;;;;;;;;;19.00;65.00;;;;;;5043894;27;87102;-49
2023/09/20 08:02:27;;;;;;;;;;;19.00;65.00;;;;;;5043773;27;88911;-56
2023/09/20 08:04:54;;;;;;;;;;;19.10;65.10;;;;;;5039845;27;87697;-56
2023/09/20 08:07:19;;;;;;;;;;;19.00;65.10;;;;;;5043032;27;87381;-55
2023/09/20 08:09:45;;;;;;;;;;;19.00;65.10;;;;;;5040465;27;90739;-54
2023/09/20 08:12:11;;;;;;;;;;;19.10;65.10;;;;;;5040516;27;87506;-50
2023/09/20 08:14:37;;;;;;;;;;;19.10;65.30;;;;;;5039558;27;89743;-55
2023/09/20 08:19:47;;;;;;;;;;;19.10;65.20;;;;;;5043563;27;87177;-57
2023/09/20 08:22:15;;;;;;;;;;;19.10;65.30;;;;;;5039689;27;87407;-51
2023/09/20 09:00:27;;;;;;;;;;;19.10;65.20;;;;;;5039900;28;87273;-52
2023/09/20 09:02:54;;;;;;;;;;;19.10;64.90;;;;;;5039760;27;88115;-54
2023/09/20 09:05:22;;;;;;;;;;;19.10;65.10;;;;;;5042598;27;89404;-51
2023/09/20 09:07:48;;;;;;;;;;;19.20;65.20;;;;;;5038412;27;88356;-54
2023/09/20 09:10:14;;;;;;;;;;;19.20;65.10;;;;;;5041143;27;87273;-54
2023/09/20 09:12:43;;;;;;;;;;;19.20;65.10;;;;;;5044512;27;87499;-48
2023/09/20 09:15:10;;;;;;;;;;;19.20;65.00;;;;;;5039313;27;87179;-55
2023/09/20 09:17:43;;;;;;;;;;;19.20;64.70;;;;;;5036375;27;88899;-52
2023/09/20 09:20:13;;;;;;;;;;;19.20;64.90;;;;;;5040719;28;88016;-58
2023/09/20 09:22:39;;;;;;;;;;;19.20;64.80;;;;;;5037909;27;87142;-55
2023/09/20 09:25:25;;;;;;;;;;;19.20;64.80;;;;;;5039118;27;87204;-58
2023/09/20 09:27:50;;;;;;;;;;;19.20;64.80;;;;;;5034817;27;90339;-52
2023/09/20 09:30:16;;;;;;;;;;;19.20;64.80;;;;;;5041362;27;87602;-49
2023/09/20 09:32:43;;;;;;;;;;;19.20;64.80;;;;;;5039618;27;88002;-52
2023/09/20 09:35:09;;;;;;;;;;;19.20;64.80;;;;;;5041223;27;88389;-55
2023/09/20 09:37:36;;;;;;;;;;;19.20;64.80;;;;;;5041389;28;88856;-48
2023/09/20 09:40:02;;;;;;;;;;;19.20;64.60;;;;;;5041286;27;88142;-58
2023/09/20 09:42:31;;;;;;;;;;;19.30;64.70;;;;;;5039012;27;87123;-55
2023/09/20 09:44:57;;;;;;;;;;;19.30;64.60;;;;;;5036854;27;88232;-51
2023/09/20 09:47:24;;;;;;;;;;;19.30;64.60;;;;;;5041082;28;89684;-56
2023/09/20 09:49:51;;;;;;;;;;;19.30;65.00;;;;;;5040634;27;88890;-56
2023/09/20 09:52:17;;;;;;;;;;;19.30;65.10;;;;;;5038713;27;88598;-55
2023/09/20 09:54:44;;;;;;;;;;;19.30;65.10;;;;;;5040422;27;88098;-55
2023/09/20 09:57:11;;;;;;;;;;;19.30;64.80;;;;;;5044790;28;87918;-51
2023/09/20 09:59:36;;;;;;;;;;;19.30;64.90;;;;;;5043489;28;88940;-54
2023/09/20 10:02:07;;;;;;;;;;;19.40;65.20;;;;;;5045563;27;87203;-56
2023/09/20 10:04:33;;;;;;;;;;;19.40;65.30;;;;;;5041928;27;89354;-46
2023/09/20 10:07:09;;;;;;;;;;;19.40;65.10;;;;;;5044318;28;88244;-59
2023/09/20 10:09:37;;;;;;;;;;;19.30;65.30;;;;;;5044693;27;86569;-51
2023/09/20 10:12:04;;;;;;;;;;;19.40;65.40;;;;;;5042858;27;87335;-57
2023/09/20 10:14:29;;;;;;;;;;;19.40;65.50;;;;;;5042230;27;87760;-54
2023/09/20 10:16:55;;;;;;;;;;;19.40;65.20;;;;;;5047102;27;88281;-54
2023/09/20 10:19:23;;;;;;;;;;;19.40;67.50;;;;;;5042338;27;88309;-56
2023/09/20 10:22:08;;;;;;;;;;;19.40;67.00;;;;;;5045255;27;87721;-53
2023/09/20 10:24:43;;;;;;;;;;;19.40;67.30;;;;;;5040955;28;89017;-50
2023/09/20 10:27:14;;;;;;;;;;;19.50;67.10;;;;;;5043668;27;90029;-57
2023/09/20 10:29:39;;;;;;;;;;;19.50;66.50;;;;;;5042163;27;87090;-54
2023/09/20 10:32:07;;;;;;;;;;;19.60;66.10;;;;;;5041138;27;88273;-48
2023/09/20 10:34:38;;;;;;;;;;;19.60;66.20;;;;;;5042312;27;89029;-49
2023/09/20 10:37:11;;;;;;;;;;;19.70;67.70;;;;;;5043168;27;88057;-48
2023/09/20 10:39:38;;;;;;;;;;;19.90;67.40;;;;;;5044919;27;87404;-41
2023/09/20 10:42:12;;;;;;;;;;;20.10;66.60;;;;;;5041815;27;88928;-50
2023/09/20 10:44:41;;;;;;;;;;;20.20;67.80;;;;;;5043909;27;88857;-44
2023/09/20 10:47:12;;;;;;;;;;;20.10;67.40;;;;;;5044417;27;88253;-45
2023/09/20 10:49:42;;;;;;;;;;;20.10;66.70;;;;;;5046856;27;87134;-48
2023/09/20 10:52:08;;;;;;;;;;;20.10;66.70;;;;;;5043855;28;87358;-46
2023/09/20 10:54:36;;;;;;;;;;;20.20;64.80;;;;;;5043086;27;89319;-54
2023/09/20 10:57:04;;;;;;;;;;;20.30;65.00;;;;;;5041524;27;87245;-47
2023/09/20 10:59:31;;;;;;;;;;;20.30;65.60;;;;;;5043550;27;88963;-47
2023/09/20 11:02:01;;;;;;;;;;;20.40;66.50;;;;;;5045853;27;89803;-51
2023/09/20 11:04:28;;;;;;;;;;;20.40;65.10;;;;;;5042342;28;87233;-48
2023/09/20 11:06:54;;;;;;;;;;;20.50;66.10;;;;;;5039072;27;90629;-50
2023/09/20 11:09:22;;;;;;;;;;;20.50;66.10;;;;;;5044602;27;87181;-47
2023/09/20 11:11:47;;;;;;;;;;;20.60;65.00;;;;;;5043688;27;87110;-51
2023/09/20 11:14:13;;;;;;;;;;;20.60;66.20;;;;;;5041936;27;89281;-46
2023/09/20 11:16:42;;;;;;;;;;;20.70;66.00;;;;;;5041608;27;87098;-46
2023/09/20 11:19:09;;;;;;;;;;;20.80;66.50;;;;;;5042150;28;87803;-50
2023/09/20 11:21:34;;;;;;;;;;;20.80;67.70;;;;;;5043170;28;88652;-49
2023/09/20 11:24:00;;;;;;;;;;;20.90;66.90;;;;;;5044802;27;86649;-47
2023/09/20 11:26:29;;;;;;;;;;;20.90;66.80;;;;;;5040286;27;89239;-44
2023/09/20 11:28:56;;;;;;;;;;;20.90;68.00;;;;;;5043467;27;87228;-50
2023/09/20 11:31:28;;;;;;;;;;;21.00;67.50;;;;;;5042212;27;89246;-45
2023/09/20 11:33:58;;;;;;;;;;;21.00;68.20;;;;;;5040879;27;88596;-47
2023/09/20 11:36:25;;;;;;;;;;;21.10;68.30;;;;;;5040239;27;88952;-51
2023/09/20 11:38:51;;;;;;;;;;;21.10;69.10;;;;;;5043185;28;87562;-46
2023/09/20 11:41:17;;;;;;;;;;;21.10;67.90;;;;;;5041283;27;89753;-45
2023/09/20 11:43:44;;;;;;;;;;;21.10;67.50;;;;;;5042421;27;88799;-49
2023/09/20 11:46:10;;;;;;;;;;;21.10;67.20;;;;;;5044912;27;87118;-46
2023/09/20 11:48:37;;;;;;;;;;;21.10;67.00;;;;;;5039513;28;86407;-54
2023/09/20 11:51:03;;;;;;;;;;;21.10;67.30;;;;;;5040859;27;88041;-48
2023/09/20 11:53:30;;;;;;;;;;;21.10;66.70;;;;;;5039806;27;88052;-52
2023/09/20 11:55:58;;;;;;;;;;;21.10;66.90;;;;;;5040358;28;88057;-47
2023/09/20 11:58:23;;;;;;;;;;;21.20;68.00;;;;;;5042388;27;89575;-48
2023/09/20 12:00:49;;;;;;;;;;;21.30;68.10;;;;;;5040022;27;88456;-58
2023/09/20 12:03:15;;;;;;;;;;;21.30;67.20;;;;;;5037635;27;87286;-54
2023/09/20 12:05:42;;;;;;;;;;;21.30;67.00;;;;;;5044978;28;87499;-54
2023/09/20 12:08:09;;;;;;;;;;;21.30;67.10;;;;;;5041751;27;87110;-53
2023/09/20 12:10:34;;;;;;;;;;;21.30;66.70;;;;;;5040104;27;87894;-50
2023/09/20 12:13:00;;;;;;;;;;;21.30;66.80;;;;;;5038735;27;87548;-55
2023/09/20 12:15:25;;;;;;;;;;;21.30;66.20;;;;;;5042746;27;87149;-54
2023/09/20 12:17:53;;;;;;;;;;;21.40;66.20;;;;;;5040628;27;87833;-45
2023/09/20 12:20:19;;;;;;;;;;;21.40;66.20;;;;;;5038799;27;90345;-49
2023/09/20 12:22:44;;;;;;;;;;;21.50;66.10;;;;;;5040858;27;87151;-49
2023/09/20 12:25:15;;;;;;;;;;;21.50;66.30;;;;;;5042757;28;87718;-58
2023/09/20 12:27:42;;;;;;;;;;;21.50;65.50;;;;;;5043147;27;88325;-51
2023/09/20 12:30:08;;;;;;;;;;;21.50;65.00;;;;;;5039548;27;88882;-49
2023/09/20 12:32:34;;;;;;;;;;;21.50;64.80;;;;;;5041917;27;90111;-53
2023/09/20 12:35:00;;;;;;;;;;;21.50;64.90;;;;;;5041581;27;87336;-54
2023/09/20 12:37:26;;;;;;;;;;;21.50;64.60;;;;;;5036993;27;87731;-45
2023/09/20 12:39:52;;;;;;;;;;;21.50;64.20;;;;;;5038571;27;88369;-51
2023/09/20 12:42:18;;;;;;;;;;;21.50;63.80;;;;;;5042088;27;87326;-51
2023/09/20 12:44:44;;;;;;;;;;;21.60;63.70;;;;;;5040806;28;88065;-51
2023/09/20 12:47:09;;;;;;;;;;;21.60;63.80;;;;;;5039385;27;88370;-51
2023/09/20 12:49:38;;;;;;;;;;;21.60;63.30;;;;;;5041494;27;87140;-50
2023/09/20 12:52:04;;;;;;;;;;;21.60;63.50;;;;;;5041014;27;90007;-50
2023/09/20 12:54:30;;;;;;;;;;;21.70;63.00;;;;;;5042560;27;87014;-51
2023/09/20 12:56:59;;;;;;;;;;;21.70;63.10;;;;;;5040143;27;88014;-52
2023/09/20 12:59:27;;;;;;;;;;;21.80;63.40;;;;;;5040706;27;88190;-49
2023/09/20 13:01:53;;;;;;;;;;;21.90;63.10;;;;;;5041888;27;86431;-51
2023/09/20 13:04:19;;;;;;;;;;;21.90;63.30;;;;;;5040336;27;87040;-50
2023/09/20 13:06:45;;;;;;;;;;;21.90;62.80;;;;;;5035384;27;89200;-56
2023/09/20 13:09:14;;;;;;;;;;;21.90;62.40;;;;;;5039696;28;88129;-59
2023/09/20 13:11:41;;;;;;;;;;;22.00;63.50;;;;;;5043877;27;89711;-45
2023/09/20 13:14:07;;;;;;;;;;;22.20;62.80;;;;;;5039915;27;88270;-49
2023/09/20 13:16:34;;;;;;;;;;;22.20;63.30;;;;;;5039229;27;88140;-49
2023/09/20 13:19:02;;;;;;;;;;;22.10;63.20;;;;;;5039795;28;89672;-45
2023/09/20 13:21:28;;;;;;;;;;;22.10;65.40;;;;;;5040479;27;87160;-49
2023/09/20 13:23:54;;;;;;;;;;;22.40;64.70;;;;;;5039446;27;87803;-45
2023/09/20 13:26:20;;;;;;;;;;;22.40;63.90;;;;;;5041153;27;87518;-46
2023/09/20 13:28:45;;;;;;;;;;;22.30;64.40;;;;;;5037558;28;87025;-51
2023/09/20 13:31:13;;;;;;;;;;;22.20;65.90;;;;;;5042583;27;87805;-46
2023/09/20 13:33:39;;;;;;;;;;;22.20;62.50;;;;;;5046493;27;89078;-53
2023/09/20 13:36:05;;;;;;;;;;;22.20;63.00;;;;;;5044012;27;88705;-48
2023/09/20 13:38:30;;;;;;;;;;;22.20;62.70;;;;;;5044857;28;88421;-49
2023/09/20 13:40:56;;;;;;;;;;;22.20;62.60;;;;;;5043211;27;88214;-49
2023/09/20 13:43:21;;;;;;;;;;;22.20;62.70;;;;;;5042503;27;87661;-50
2023/09/20 13:45:48;;;;;;;;;;;22.20;62.60;;;;;;5044970;28;88638;-49
2023/09/20 13:48:14;;;;;;;;;;;22.10;62.60;;;;;;5044422;27;87114;-49
2023/09/20 13:50:40;;;;;;;;;;;22.10;62.70;;;;;;5046827;27;89893;-47
2023/09/20 13:53:06;;;;;;;;;;;22.10;62.80;;;;;;5043735;27;88037;-48
2023/09/20 13:55:32;;;;;;;;;;;22.10;62.90;;;;;;5047288;28;87049;-52
2023/09/20 13:57:58;;;;;;;;;;;22.10;62.90;;;;;;5043373;27;90538;-53
2023/09/20 14:00:27;;;;;;;;;;;22.00;62.90;;;;;;5042500;27;87409;-53
2023/09/20 14:02:53;;;;;;;;;;;22.00;63.00;;;;;;5043048;27;87258;-51
2023/09/20 14:05:18;;;;;;;;;;;22.00;63.10;;;;;;5044556;28;87545;-51
2023/09/20 14:07:45;;;;;;;;;;;22.00;63.10;;;;;;5043021;27;87196;-52
2023/09/20 14:10:11;;;;;;;;;;;22.00;63.10;;;;;;5042140;27;88931;-50
2023/09/20 14:12:38;;;;;;;;;;;22.00;63.10;;;;;;5043583;27;87930;-50
2023/09/20 14:15:06;;;;;;;;;;;22.00;63.20;;;;;;5044188;28;86385;-48
2023/09/20 14:17:31;;;;;;;;;;;22.00;63.20;;;;;;5042053;27;89317;-53
2023/09/20 14:19:57;;;;;;;;;;;22.00;63.20;;;;;;5042161;27;88914;-51
2023/09/20 14:22:22;;;;;;;;;;;22.00;63.20;;;;;;5042023;28;88195;-53
2023/09/20 14:24:49;;;;;;;;;;;22.00;62.70;;;;;;5042608;27;88521;-46
2023/09/20 14:27:14;;;;;;;;;;;22.10;61.30;;;;;;5041522;27;87567;-53
2023/09/20 14:29:40;;;;;;;;;;;22.10;61.50;;;;;;5038608;27;87442;-50
2023/09/20 14:32:05;;;;;;;;;;;22.20;61.20;;;;;;5043563;28;88099;-44
2023/09/20 14:34:31;;;;;;;;;;;22.10;60.30;;;;;;5042375;27;87300;-48
2023/09/20 14:36:57;;;;;;;;;;;22.10;59.60;;;;;;5043889;27;87698;-49
2023/09/20 14:39:22;;;;;;;;;;;22.10;60.00;;;;;;5040368;28;86444;-50
2023/09/20 14:41:48;;;;;;;;;;;22.10;60.50;;;;;;5043449;27;88506;-53
2023/09/20 14:44:13;;;;;;;;;;;22.10;60.10;;;;;;5042607;27;89038;-51
2023/09/20 14:46:40;;;;;;;;;;;22.20;60.00;;;;;;5041193;27;88313;-46
2023/09/20 14:49:07;;;;;;;;;;;22.20;60.20;;;;;;5041242;28;88583;-54
2023/09/20 14:51:33;;;;;;;;;;;22.20;60.90;;;;;;5042302;27;89624;-48